Terminal Aerodrome Forecast
Issued by NWS Mt. Holly, NJ

Home | Current Version | Previous Version | Text Only | Print | Product List | Glossary On
Versions: 1 2 3 4 5 6 7 8 9 10 11 12 13 14 15 16 17
000
FTUS41 KPHI 201100
TAFACY
TAF
KACY 201130Z 2012/2112 VRB03KT P6SM BKN090
     FM201600 14011KT P6SM VCSH OVC025
     FM210000 11005KT P6SM BKN025
     FM210500 VRB02KT P6SM BKN012
     FM211000 VRB02KT 3SM BR BKN009=

USA.gov is the U.S. government's official web portal to all federal, state and local government web resources and services.